createdAt,value
2018-05-31T00:00:47.848Z,20.06
2018-05-31T00:01:47.462Z,20.02
2018-05-31T00:02:47.385Z,20.02
2018-05-31T00:03:47.323Z,20.01
2018-05-31T00:04:47.235Z,20.01
2018-05-31T00:05:47.161Z,20.10
2018-05-31T00:06:47.085Z,20.06
2018-05-31T00:07:47.023Z,20.03
2018-05-31T00:08:46.936Z,20.01
2018-05-31T00:09:46.850Z,20.02
2018-05-31T00:10:46.786Z,20.06
2018-05-31T00:11:46.700Z,20.08
2018-05-31T00:12:46.625Z,19.96
2018-05-31T00:13:46.550Z,19.98
2018-05-31T00:14:46.474Z,20.01
2018-05-31T00:15:46.400Z,19.99
2018-05-31T00:16:46.326Z,19.96
2018-05-31T00:17:46.239Z,20.01
2018-05-31T00:18:46.164Z,19.98
2018-05-31T00:19:46.091Z,19.95
2018-05-31T00:20:46.262Z,19.95
2018-05-31T00:21:45.948Z,19.92
2018-05-31T00:22:45.875Z,19.91
2018-05-31T00:23:45.788Z,19.91
2018-05-31T00:24:45.725Z,19.95
2018-05-31T00:25:45.637Z,19.96
2018-05-31T00:26:45.551Z,19.92
2018-05-31T00:27:45.487Z,19.95
2018-05-31T00:28:45.402Z,19.99
2018-05-31T00:29:45.326Z,19.92
2018-05-31T00:30:45.252Z,19.99
2018-05-31T00:31:45.177Z,19.92
2018-05-31T00:32:45.102Z,19.98
2018-05-31T00:33:45.027Z,19.87
2018-05-31T00:34:44.943Z,19.83
2018-05-31T00:35:44.863Z,19.94
2018-05-31T00:36:44.789Z,19.94
2018-05-31T00:37:44.714Z,19.84
2018-05-31T00:38:44.639Z,19.84
2018-05-31T00:39:44.579Z,19.83
2018-05-31T00:40:44.789Z,19.80
2018-05-31T00:41:44.414Z,19.78
2018-05-31T00:42:44.328Z,19.77
2018-05-31T00:43:44.254Z,19.76
2018-05-31T00:44:44.178Z,19.84
2018-05-31T00:45:44.108Z,19.77
2018-05-31T00:46:44.028Z,19.80
2018-05-31T00:47:43.953Z,19.78
2018-05-31T00:48:43.878Z,19.83
2018-05-31T00:49:43.803Z,19.80
2018-05-31T00:50:43.717Z,19.77
2018-05-31T00:51:43.640Z,19.78
2018-05-31T00:52:43.569Z,19.88
2018-05-31T00:53:43.490Z,19.83
2018-05-31T00:54:43.416Z,19.76
2018-05-31T00:55:43.341Z,19.77
2018-05-31T00:56:43.268Z,19.81
2018-05-31T00:57:43.191Z,19.83
2018-05-31T00:58:43.105Z,19.83
2018-05-31T00:59:43.038Z,19.74
2018-05-31T01:00:43.209Z,19.76
2018-05-31T01:01:42.880Z,19.77
2018-05-31T01:02:42.806Z,19.77
2018-05-31T01:03:42.730Z,19.69
2018-05-31T01:04:42.656Z,19.71
2018-05-31T01:05:42.568Z,19.73
2018-05-31T01:06:42.506Z,19.71
2018-05-31T01:07:42.418Z,19.74
2018-05-31T01:08:42.342Z,19.74
2018-05-31T01:09:42.276Z,19.76
2018-05-31T01:10:42.205Z,19.71
2018-05-31T01:11:42.117Z,19.77
2018-05-31T01:12:42.043Z,19.77
2018-05-31T01:13:41.956Z,19.76
2018-05-31T01:14:41.881Z,19.74
2018-05-31T01:15:41.806Z,19.71
2018-05-31T01:16:41.731Z,19.73
2018-05-31T01:17:41.657Z,19.76
2018-05-31T01:18:41.581Z,19.69
2018-05-31T01:19:41.507Z,19.74
2018-05-31T01:20:41.419Z,19.77
2018-05-31T01:21:41.358Z,19.61
2018-05-31T01:22:41.268Z,19.63
2018-05-31T01:23:41.195Z,19.68
2018-05-31T01:24:41.119Z,19.59
2018-05-31T01:25:41.057Z,19.66
2018-05-31T01:26:40.970Z,19.59
2018-05-31T01:27:40.890Z,19.54
2018-05-31T01:28:40.808Z,19.56
2018-05-31T01:29:40.733Z,19.58
2018-05-31T01:30:40.658Z,19.55
2018-05-31T01:31:40.592Z,19.56
2018-05-31T01:32:40.508Z,19.59
2018-05-31T01:33:40.422Z,19.54
2018-05-31T01:34:40.358Z,19.61
2018-05-31T01:35:40.271Z,19.58
2018-05-31T01:36:40.196Z,19.54
2018-05-31T01:37:40.121Z,19.50
2018-05-31T01:38:40.047Z,19.50
2018-05-31T01:39:39.971Z,19.43
2018-05-31T01:40:39.895Z,19.39
2018-05-31T01:41:39.810Z,19.44
2018-05-31T01:42:39.734Z,19.47
2018-05-31T01:43:39.660Z,19.43
2018-05-31T01:44:39.588Z,19.47
2018-05-31T01:45:39.510Z,19.40
2018-05-31T01:46:39.435Z,19.50
2018-05-31T01:47:39.359Z,19.54
2018-05-31T01:48:39.272Z,19.48
2018-05-31T01:49:39.197Z,19.51
2018-05-31T01:50:39.122Z,19.44
2018-05-31T01:51:39.046Z,19.51
2018-05-31T01:52:38.972Z,19.41
2018-05-31T01:53:38.897Z,19.48
2018-05-31T01:54:38.812Z,19.46
2018-05-31T01:55:38.747Z,19.43
2018-05-31T01:56:38.661Z,19.40
2018-05-31T01:57:38.587Z,19.44
2018-05-31T01:58:38.513Z,19.41
2018-05-31T01:59:38.436Z,19.44
2018-05-31T02:00:38.362Z,19.37
2018-05-31T02:01:38.275Z,19.36
2018-05-31T02:02:38.198Z,19.40
2018-05-31T02:03:38.124Z,19.39
2018-05-31T02:04:38.049Z,19.47
2018-05-31T02:05:37.974Z,19.37
2018-05-31T02:06:37.899Z,19.37
2018-05-31T02:07:37.823Z,19.40
2018-05-31T02:08:37.738Z,19.29
2018-05-31T02:09:37.663Z,19.31
2018-05-31T02:10:37.839Z,19.28
2018-05-31T02:11:37.514Z,19.29
2018-05-31T02:12:37.437Z,19.25
2018-05-31T02:13:37.369Z,19.21
2018-05-31T02:14:37.279Z,19.28
2018-05-31T02:15:37.200Z,19.25
2018-05-31T02:16:37.127Z,19.22
2018-05-31T02:17:37.050Z,19.14
2018-05-31T02:18:36.975Z,19.23
2018-05-31T02:19:36.900Z,19.22
2018-05-31T02:20:36.826Z,19.08
2018-05-31T02:21:36.739Z,19.08
2018-05-31T02:22:36.664Z,19.04
2018-05-31T02:23:36.589Z,19.02
2018-05-31T02:24:36.514Z,18.99
2018-05-31T02:25:36.439Z,18.94
2018-05-31T02:26:36.364Z,19.00
2018-05-31T02:27:36.290Z,18.91
2018-05-31T02:28:36.215Z,18.90
2018-05-31T02:29:36.126Z,18.87
2018-05-31T02:30:36.065Z,18.84
2018-05-31T02:31:35.976Z,18.91
2018-05-31T02:32:35.901Z,18.84
2018-05-31T02:33:35.827Z,18.73
2018-05-31T02:34:35.744Z,18.73
2018-05-31T02:35:35.664Z,18.81
2018-05-31T02:36:35.590Z,18.80
2018-05-31T02:37:35.515Z,18.75
2018-05-31T02:38:35.441Z,18.67
2018-05-31T02:39:35.366Z,18.65
2018-05-31T02:40:35.279Z,18.67
2018-05-31T02:41:35.203Z,18.63
2018-05-31T02:42:35.128Z,18.67
2018-05-31T02:43:35.067Z,18.69
2018-05-31T02:44:34.978Z,18.69
2018-05-31T02:45:34.916Z,18.72
2018-05-31T02:46:34.827Z,18.67
2018-05-31T02:47:34.742Z,18.70
2018-05-31T02:48:34.667Z,18.67
2018-05-31T02:49:34.591Z,18.72
2018-05-31T02:50:34.531Z,18.67
2018-05-31T02:51:34.443Z,18.67
2018-05-31T02:52:34.367Z,18.70
2018-05-31T02:53:34.279Z,18.66
2018-05-31T02:54:34.203Z,18.62
2018-05-31T02:55:34.129Z,18.67
2018-05-31T02:56:34.053Z,18.70
2018-05-31T02:57:33.980Z,18.63
2018-05-31T02:58:33.893Z,18.73
2018-05-31T02:59:33.821Z,18.65
2018-05-31T03:00:34.042Z,18.73
2018-05-31T03:01:33.667Z,18.80
2018-05-31T03:02:33.593Z,18.85
2018-05-31T03:03:33.518Z,18.85
2018-05-31T03:04:33.430Z,18.82
2018-05-31T03:05:33.355Z,18.85
2018-05-31T03:06:33.282Z,18.84
2018-05-31T03:07:33.209Z,18.82
2018-05-31T03:08:33.131Z,18.78
2018-05-31T03:09:33.044Z,18.82
2018-05-31T03:10:33.220Z,18.72
2018-05-31T03:11:32.893Z,18.76
2018-05-31T03:12:32.820Z,18.67
2018-05-31T03:13:32.744Z,18.67
2018-05-31T03:14:32.669Z,18.72
2018-05-31T03:15:32.583Z,18.75
2018-05-31T03:16:32.507Z,18.78
2018-05-31T03:17:32.433Z,18.80
2018-05-31T03:18:32.356Z,18.81
2018-05-31T03:19:32.282Z,18.75
2018-05-31T03:20:32.207Z,18.75
2018-05-31T03:21:32.132Z,18.78
2018-05-31T03:22:32.045Z,18.81
2018-05-31T03:23:31.970Z,18.85
2018-05-31T03:24:31.896Z,18.78
2018-05-31T03:25:31.821Z,18.76
2018-05-31T03:26:31.734Z,18.84
2018-05-31T03:27:31.658Z,18.78
2018-05-31T03:28:31.584Z,18.87
2018-05-31T03:29:31.509Z,18.84
2018-05-31T03:30:31.438Z,18.84
2018-05-31T03:31:31.358Z,18.95
2018-05-31T03:32:31.273Z,18.99
2018-05-31T03:33:31.197Z,19.04
2018-05-31T03:34:31.122Z,19.06
2018-05-31T03:35:31.052Z,19.04
2018-05-31T03:36:30.972Z,19.06
2018-05-31T03:37:30.888Z,19.07
2018-05-31T03:38:30.810Z,19.07
2018-05-31T03:39:30.734Z,19.10
2018-05-31T03:40:30.909Z,19.10
2018-05-31T03:41:30.586Z,19.18
2018-05-31T03:42:30.509Z,19.10
2018-05-31T03:43:30.426Z,19.21
2018-05-31T03:44:30.347Z,19.18
2018-05-31T03:45:30.272Z,19.18
2018-05-31T03:46:30.198Z,19.16
2018-05-31T03:47:30.203Z,19.22
2018-05-31T03:48:30.048Z,19.08
2018-05-31T03:49:29.961Z,19.23
2018-05-31T03:50:29.885Z,19.21
2018-05-31T03:51:29.812Z,19.18
2018-05-31T03:52:29.737Z,19.21
2018-05-31T03:53:29.660Z,19.13
2018-05-31T03:54:29.585Z,19.25
2018-05-31T03:55:29.499Z,19.18
2018-05-31T03:56:29.424Z,19.28
2018-05-31T03:57:29.349Z,19.31
2018-05-31T03:58:29.273Z,19.25
2018-05-31T03:59:29.204Z,19.41
2018-05-31T04:00:29.128Z,19.33
2018-05-31T04:01:29.107Z,19.44
2018-05-31T04:02:28.962Z,19.37
2018-05-31T04:03:28.887Z,19.44
2018-05-31T04:04:28.812Z,19.36
2018-05-31T04:05:28.987Z,19.39
2018-05-31T04:06:28.662Z,19.39
2018-05-31T04:07:28.576Z,19.41
2018-05-31T04:08:28.502Z,19.47
2018-05-31T04:09:28.426Z,19.43
2018-05-31T04:10:28.350Z,19.40
2018-05-31T04:11:28.276Z,19.47
2018-05-31T04:12:28.201Z,19.43
2018-05-31T04:13:28.114Z,19.54
2018-05-31T04:14:28.038Z,19.54
2018-05-31T04:15:27.968Z,19.56
2018-05-31T04:16:27.901Z,19.51
2018-05-31T04:17:27.813Z,19.63
2018-05-31T04:18:27.739Z,19.55
2018-05-31T04:19:27.663Z,19.62
2018-05-31T04:20:27.588Z,19.69
2018-05-31T04:21:27.506Z,19.71
2018-05-31T04:22:27.427Z,19.78
2018-05-31T04:23:27.355Z,19.73
2018-05-31T04:24:27.277Z,19.77
2018-05-31T04:25:27.202Z,19.88
2018-05-31T04:26:27.127Z,19.81
2018-05-31T04:27:27.040Z,19.92
2018-05-31T04:28:26.966Z,19.86
2018-05-31T04:29:26.906Z,19.98
2018-05-31T04:30:26.828Z,20.01
2018-05-31T04:31:26.739Z,19.99
2018-05-31T04:32:26.664Z,20.16
2018-05-31T04:33:26.589Z,20.14
2018-05-31T04:34:26.507Z,20.13
2018-05-31T04:35:26.427Z,20.18
2018-05-31T04:36:26.353Z,20.51
2018-05-31T04:37:26.292Z,20.97
2018-05-31T04:38:26.203Z,21.22
2018-05-31T04:39:26.129Z,21.40
2018-05-31T04:40:26.307Z,21.61
2018-05-31T04:41:25.969Z,21.69
2018-05-31T04:42:25.931Z,22.02
2018-05-31T04:43:25.816Z,22.21
2018-05-31T04:44:25.741Z,22.18
2018-05-31T04:45:25.667Z,22.46
2018-05-31T04:46:25.591Z,22.40
2018-05-31T04:47:25.516Z,22.54
2018-05-31T04:48:25.441Z,22.52
2018-05-31T04:49:25.380Z,22.52
2018-05-31T04:50:25.292Z,22.25
2018-05-31T04:51:25.217Z,22.27
2018-05-31T04:52:25.142Z,22.17
2018-05-31T04:53:25.066Z,22.07
2018-05-31T04:54:24.980Z,22.03
2018-05-31T04:55:24.905Z,21.86
2018-05-31T04:56:24.832Z,21.98
2018-05-31T04:57:24.756Z,21.96
2018-05-31T04:58:24.679Z,22.03
2018-05-31T04:59:24.606Z,21.96
2018-05-31T05:00:24.530Z,21.99
2018-05-31T05:01:24.456Z,21.99
2018-05-31T05:02:24.381Z,22.02
2018-05-31T05:03:24.306Z,21.91
2018-05-31T05:04:24.231Z,21.91
2018-05-31T05:05:24.156Z,21.90
2018-05-31T05:06:24.085Z,21.86
2018-05-31T05:07:24.009Z,21.79
2018-05-31T05:08:23.932Z,21.72
2018-05-31T05:09:23.858Z,21.72
2018-05-31T05:10:23.782Z,21.65
2018-05-31T05:11:23.707Z,21.59
2018-05-31T05:12:23.632Z,21.69
2018-05-31T05:13:23.557Z,21.65
2018-05-31T05:14:23.483Z,21.71
2018-05-31T05:15:23.407Z,21.75
2018-05-31T05:16:23.333Z,21.75
2018-05-31T05:17:23.260Z,21.74
2018-05-31T05:18:23.190Z,21.86
2018-05-31T05:19:23.108Z,21.86
2018-05-31T05:20:23.033Z,21.88
2018-05-31T05:21:22.957Z,21.96
2018-05-31T05:22:22.883Z,21.88
2018-05-31T05:23:22.808Z,21.86
2018-05-31T05:24:22.733Z,21.83
2018-05-31T05:25:22.896Z,21.90
2018-05-31T05:26:22.576Z,21.94
2018-05-31T05:27:22.497Z,21.94
2018-05-31T05:28:22.422Z,22.03
2018-05-31T05:29:22.349Z,21.88
2018-05-31T05:30:22.271Z,21.83
2018-05-31T05:31:22.196Z,21.90
2018-05-31T05:32:22.125Z,22.00
2018-05-31T05:33:22.046Z,21.90
2018-05-31T05:34:21.971Z,21.99
2018-05-31T05:35:21.896Z,22.00
2018-05-31T05:36:21.821Z,22.07
2018-05-31T05:37:21.746Z,22.09
2018-05-31T05:38:21.671Z,22.06
2018-05-31T05:39:21.597Z,22.18
2018-05-31T05:40:21.522Z,22.15
2018-05-31T05:41:21.449Z,22.14
2018-05-31T05:42:21.371Z,22.18
2018-05-31T05:43:21.298Z,22.27
2018-05-31T05:44:21.223Z,22.31
2018-05-31T05:45:21.147Z,22.28
2018-05-31T05:46:21.072Z,22.45
2018-05-31T05:47:20.998Z,22.49
2018-05-31T05:48:20.923Z,22.54
2018-05-31T05:49:20.848Z,22.57
2018-05-31T05:50:20.773Z,22.58
2018-05-31T05:51:20.698Z,22.55
2018-05-31T05:52:20.622Z,22.64
2018-05-31T05:53:20.548Z,22.65
2018-05-31T05:54:20.473Z,22.70
2018-05-31T05:55:20.411Z,22.68
2018-05-31T05:56:20.360Z,22.73
2018-05-31T05:57:20.249Z,22.72
2018-05-31T05:58:20.174Z,22.68
2018-05-31T05:59:20.112Z,22.68
2018-05-31T06:00:20.315Z,22.70
2018-05-31T06:01:19.962Z,22.68
2018-05-31T06:02:19.874Z,22.76
2018-05-31T06:03:19.800Z,22.86
2018-05-31T06:04:19.774Z,22.90
2018-05-31T06:05:19.650Z,22.86
2018-05-31T06:06:19.574Z,22.90
2018-05-31T06:07:19.501Z,22.88
2018-05-31T06:08:19.426Z,22.90
2018-05-31T06:09:19.363Z,22.90
2018-05-31T06:10:19.319Z,22.92
2018-05-31T06:11:19.214Z,22.98
2018-05-31T06:12:19.125Z,23.02
2018-05-31T06:13:19.054Z,23.02
2018-05-31T06:14:18.975Z,23.09
2018-05-31T06:15:18.901Z,23.10
2018-05-31T06:16:18.826Z,23.25
2018-05-31T06:17:18.766Z,23.35
2018-05-31T06:18:18.676Z,23.23
2018-05-31T06:19:18.602Z,23.38
2018-05-31T06:20:18.776Z,23.17
2018-05-31T06:21:18.465Z,23.33
2018-05-31T06:22:18.376Z,23.28
2018-05-31T06:23:18.302Z,23.42
2018-05-31T06:24:18.227Z,23.51
2018-05-31T06:25:18.165Z,23.58
2018-05-31T06:26:18.199Z,23.54
2018-05-31T06:27:18.003Z,23.60
2018-05-31T06:28:17.928Z,23.57
2018-05-31T06:29:17.864Z,23.61
2018-05-31T06:30:17.778Z,23.54
2018-05-31T06:31:17.716Z,23.50
2018-05-31T06:32:17.642Z,23.40
2018-05-31T06:33:17.554Z,23.55
2018-05-31T06:34:17.491Z,23.65
2018-05-31T06:35:17.417Z,23.69
2018-05-31T06:36:17.343Z,23.69
2018-05-31T06:37:17.269Z,23.83
2018-05-31T06:38:17.191Z,23.88
2018-05-31T06:39:17.117Z,23.91
2018-05-31T06:40:17.041Z,24.03
2018-05-31T06:41:16.967Z,24.10
2018-05-31T06:42:16.893Z,24.27
2018-05-31T06:43:16.816Z,24.32
2018-05-31T06:44:16.742Z,24.34
2018-05-31T06:45:16.667Z,24.43
2018-05-31T06:46:16.593Z,24.47
2018-05-31T06:47:16.518Z,24.53
2018-05-31T06:48:16.443Z,24.60
2018-05-31T06:49:16.370Z,24.80
2018-05-31T06:50:16.305Z,24.78
2018-05-31T06:51:16.229Z,24.83
2018-05-31T06:52:16.155Z,24.80
2018-05-31T06:53:16.080Z,24.83
2018-05-31T06:54:16.012Z,24.95
2018-05-31T06:55:15.949Z,25.02
2018-05-31T06:56:15.855Z,25.03
2018-05-31T06:57:15.780Z,24.90
2018-05-31T06:58:15.705Z,24.95
2018-05-31T06:59:15.632Z,25.03
2018-05-31T07:00:15.557Z,25.15
2018-05-31T07:01:15.505Z,25.15
2018-05-31T07:02:15.420Z,25.03
2018-05-31T07:03:15.344Z,25.23
2018-05-31T07:04:15.274Z,25.30
2018-05-31T07:05:15.197Z,25.43
2018-05-31T07:06:15.120Z,25.50
2018-05-31T07:07:15.045Z,25.69
2018-05-31T07:08:14.970Z,26.01
2018-05-31T07:09:14.906Z,26.15
2018-05-31T07:10:14.832Z,26.10
2018-05-31T07:11:14.758Z,26.21
2018-05-31T07:12:14.682Z,26.23
2018-05-31T07:13:14.607Z,26.33
2018-05-31T07:14:14.533Z,26.39
2018-05-31T07:15:14.470Z,26.23
2018-05-31T07:16:14.396Z,26.10
2018-05-31T07:17:14.321Z,26.20
2018-05-31T07:18:14.249Z,26.15
2018-05-31T07:19:14.171Z,26.20
2018-05-31T07:20:14.108Z,25.97
2018-05-31T07:21:14.036Z,25.94
2018-05-31T07:22:13.958Z,26.01
2018-05-31T07:23:13.883Z,26.18
2018-05-31T07:24:13.811Z,26.40
2018-05-31T07:25:13.747Z,26.29
2018-05-31T07:26:13.672Z,26.55
2018-05-31T07:27:13.611Z,26.48
2018-05-31T07:28:13.534Z,26.65
2018-05-31T07:29:13.459Z,26.77
2018-05-31T07:30:13.384Z,27.10
2018-05-31T07:31:13.324Z,27.06
2018-05-31T07:32:13.251Z,27.06
2018-05-31T07:33:13.172Z,27.28
2018-05-31T07:34:13.098Z,27.10
2018-05-31T07:35:13.034Z,27.18
2018-05-31T07:36:12.992Z,27.31
2018-05-31T07:37:12.886Z,27.59
2018-05-31T07:38:12.822Z,27.77
2018-05-31T07:39:12.748Z,28.03
2018-05-31T07:40:12.685Z,28.34
2018-05-31T07:41:12.612Z,29.02
2018-05-31T07:42:12.548Z,29.64
2018-05-31T07:43:12.473Z,29.95
2018-05-31T07:44:12.411Z,30.07
2018-05-31T07:45:12.336Z,30.31
2018-05-31T07:46:12.273Z,29.67
2018-05-31T07:47:12.201Z,30.04
2018-05-31T07:48:12.135Z,29.52
2018-05-31T07:49:12.062Z,29.43
2018-05-31T07:50:12.000Z,29.57
2018-05-31T07:51:11.941Z,29.89
2018-05-31T07:52:11.861Z,30.31
2018-05-31T07:53:11.800Z,30.35
2018-05-31T07:54:11.736Z,29.90
2018-05-31T07:55:11.664Z,30.10
2018-05-31T07:56:11.600Z,29.86
2018-05-31T07:57:11.536Z,29.90
2018-05-31T07:58:11.496Z,30.34
2018-05-31T07:59:11.404Z,30.04
2018-05-31T08:00:11.336Z,30.51
2018-05-31T08:01:11.275Z,31.06
2018-05-31T08:02:11.206Z,30.49
2018-05-31T08:03:11.137Z,30.77
2018-05-31T08:04:11.064Z,31.09
2018-05-31T08:05:11.001Z,31.02
2018-05-31T08:06:10.937Z,31.41
2018-05-31T08:07:10.875Z,31.48
2018-05-31T08:08:10.802Z,31.88
2018-05-31T08:09:10.738Z,31.84
2018-05-31T08:10:10.677Z,32.14
2018-05-31T08:11:10.628Z,32.65
2018-05-31T08:12:10.540Z,32.18
2018-05-31T08:13:10.476Z,32.07
2018-05-31T08:14:10.426Z,32.18
2018-05-31T08:15:10.354Z,31.56
2018-05-31T08:16:10.288Z,32.18
2018-05-31T08:17:10.227Z,32.10
2018-05-31T08:18:10.156Z,32.44
2018-05-31T08:19:10.089Z,32.33
2018-05-31T08:20:10.033Z,32.38
2018-05-31T08:21:09.965Z,32.57
2018-05-31T08:22:09.890Z,32.29
2018-05-31T08:23:09.827Z,31.92
2018-05-31T08:24:09.765Z,32.32
2018-05-31T08:25:09.705Z,32.28
2018-05-31T08:26:09.640Z,32.70
2018-05-31T08:27:09.577Z,32.55
2018-05-31T08:28:09.531Z,32.33
2018-05-31T08:29:09.440Z,32.48
2018-05-31T08:30:09.379Z,31.41
2018-05-31T08:31:09.316Z,31.69
2018-05-31T08:32:09.255Z,31.36
2018-05-31T08:33:09.190Z,31.54
2018-05-31T08:34:09.128Z,31.53
2018-05-31T08:35:09.068Z,31.92
2018-05-31T08:36:08.993Z,32.29
2018-05-31T08:37:08.929Z,32.25
2018-05-31T08:38:08.867Z,32.04
2018-05-31T08:39:08.805Z,32.25
2018-05-31T08:40:08.755Z,31.65
2018-05-31T08:41:08.679Z,31.44
2018-05-31T08:42:08.617Z,32.03
2018-05-31T08:43:08.556Z,32.10
2018-05-31T08:44:08.548Z,31.72
2018-05-31T08:45:08.418Z,32.22
2018-05-31T08:46:08.355Z,32.23
2018-05-31T08:47:08.292Z,32.37
2018-05-31T08:48:08.231Z,32.28
2018-05-31T08:49:08.167Z,32.69
2018-05-31T08:50:08.106Z,32.30
2018-05-31T08:51:08.066Z,32.63
2018-05-31T08:52:07.981Z,32.10
2018-05-31T08:53:07.921Z,32.45
2018-05-31T08:54:07.856Z,32.30
2018-05-31T08:55:07.796Z,31.72
2018-05-31T08:56:07.719Z,31.46
2018-05-31T08:57:07.657Z,31.70
2018-05-31T08:58:07.607Z,32.13
2018-05-31T08:59:07.536Z,31.73
2018-05-31T09:00:07.469Z,32.07
2018-05-31T09:01:07.409Z,32.25
2018-05-31T09:02:07.344Z,32.32
2018-05-31T09:03:07.283Z,32.63
2018-05-31T09:04:07.219Z,32.25
2018-05-31T09:05:07.158Z,32.62
2018-05-31T09:06:07.095Z,32.28
2018-05-31T09:07:07.032Z,32.70
2018-05-31T09:08:06.970Z,32.38
2018-05-31T09:09:06.897Z,32.66
2018-05-31T09:10:06.833Z,32.60
2018-05-31T09:11:06.776Z,32.69
2018-05-31T09:12:06.709Z,32.30
2018-05-31T09:13:06.645Z,32.26
2018-05-31T09:14:06.596Z,32.08
2018-05-31T09:15:06.562Z,32.15
2018-05-31T09:16:06.459Z,31.73
2018-05-31T09:17:06.395Z,31.85
2018-05-31T09:18:06.334Z,32.37
2018-05-31T09:19:06.271Z,32.45
2018-05-31T09:20:06.209Z,32.78
2018-05-31T09:21:06.146Z,33.04
2018-05-31T09:22:06.084Z,33.45
2018-05-31T09:23:06.034Z,32.94
2018-05-31T09:24:05.959Z,33.26
2018-05-31T09:25:05.896Z,32.96
2018-05-31T09:26:05.837Z,33.37
2018-05-31T09:27:05.772Z,33.41
2018-05-31T09:28:05.711Z,33.37
2018-05-31T09:29:05.646Z,33.66
2018-05-31T09:30:05.586Z,33.60
2018-05-31T09:31:05.536Z,33.01
2018-05-31T09:32:05.460Z,32.60
2018-05-31T09:33:05.397Z,32.97
2018-05-31T09:34:05.335Z,32.38
2018-05-31T09:35:05.280Z,31.89
2018-05-31T09:36:05.211Z,32.60
2018-05-31T09:37:05.148Z,32.81
2018-05-31T09:38:05.086Z,32.94
2018-05-31T09:39:05.036Z,33.01
2018-05-31T09:40:04.963Z,32.08
2018-05-31T09:41:04.911Z,32.26
2018-05-31T09:42:04.835Z,32.18
2018-05-31T09:43:04.775Z,32.26
2018-05-31T09:44:04.718Z,32.10
2018-05-31T09:45:04.648Z,32.92
2018-05-31T09:46:04.587Z,33.38
2018-05-31T09:47:04.523Z,33.37
2018-05-31T09:48:04.450Z,33.16
2018-05-31T09:49:04.387Z,32.93
2018-05-31T09:50:04.338Z,33.42
2018-05-31T09:51:04.264Z,33.49
2018-05-31T09:52:04.199Z,33.68
2018-05-31T09:53:04.139Z,33.47
2018-05-31T09:54:04.089Z,33.69
2018-05-31T09:55:04.016Z,34.31
2018-05-31T09:56:03.949Z,34.58
2018-05-31T09:57:03.875Z,34.69
2018-05-31T09:58:03.814Z,34.69
2018-05-31T09:59:03.750Z,34.24
2018-05-31T10:00:03.691Z,34.52
2018-05-31T10:01:03.625Z,34.28
2018-05-31T10:02:03.569Z,33.69
2018-05-31T10:03:03.499Z,33.04
2018-05-31T10:04:03.438Z,32.69
2018-05-31T10:05:03.375Z,32.06
2018-05-31T10:06:03.314Z,32.37
2018-05-31T10:07:03.239Z,32.00
2018-05-31T10:08:03.176Z,31.38
2018-05-31T10:09:03.114Z,31.19
2018-05-31T10:10:03.051Z,31.54
2018-05-31T10:11:02.992Z,31.44
2018-05-31T10:12:02.914Z,31.48
2018-05-31T10:13:02.851Z,31.14
2018-05-31T10:14:02.790Z,31.07
2018-05-31T10:15:02.727Z,31.16
2018-05-31T10:16:02.676Z,31.13
2018-05-31T10:17:02.592Z,31.48
2018-05-31T10:18:02.528Z,31.46
2018-05-31T10:19:02.469Z,31.51
2018-05-31T10:20:02.410Z,31.43
2018-05-31T10:21:02.340Z,31.38
2018-05-31T10:22:02.266Z,30.98
2018-05-31T10:23:02.203Z,31.06
2018-05-31T10:24:02.141Z,31.20
2018-05-31T10:25:02.077Z,31.07
2018-05-31T10:26:02.003Z,31.06
2018-05-31T10:27:01.947Z,31.28
2018-05-31T10:28:01.878Z,31.17
2018-05-31T10:29:01.805Z,30.82
2018-05-31T10:30:01.741Z,30.84
2018-05-31T10:31:01.678Z,30.76
2018-05-31T10:32:01.617Z,31.01
2018-05-31T10:33:01.546Z,31.14
2018-05-31T10:34:01.481Z,31.14
2018-05-31T10:35:01.418Z,31.14
2018-05-31T10:36:01.351Z,31.13
2018-05-31T10:37:01.279Z,31.29
2018-05-31T10:38:01.223Z,31.39
2018-05-31T10:39:01.147Z,31.66
2018-05-31T10:40:01.080Z,31.89
2018-05-31T10:41:01.024Z,32.25
2018-05-31T10:42:00.944Z,33.00
2018-05-31T10:43:00.879Z,33.93
2018-05-31T10:44:00.819Z,34.40
2018-05-31T10:45:00.744Z,34.10
2018-05-31T10:46:00.681Z,33.66
2018-05-31T10:47:00.619Z,34.05
2018-05-31T10:48:00.568Z,33.37
2018-05-31T10:49:00.506Z,34.08
2018-05-31T10:50:00.419Z,34.81
2018-05-31T10:51:00.369Z,35.09
2018-05-31T10:52:00.299Z,35.15
2018-05-31T10:53:00.219Z,35.68
2018-05-31T10:54:00.170Z,34.32
2018-05-31T10:55:00.103Z,34.49
2018-05-31T10:56:00.031Z,33.79
2018-05-31T10:56:59.970Z,33.91
2018-05-31T10:57:59.906Z,34.46
2018-05-31T10:58:59.845Z,34.13
2018-05-31T10:59:59.781Z,34.56
2018-05-31T11:00:59.707Z,34.53
2018-05-31T11:01:59.646Z,35.02
2018-05-31T11:02:59.582Z,34.88
2018-05-31T11:03:59.521Z,34.69
2018-05-31T11:04:59.458Z,35.03
2018-05-31T11:05:59.396Z,34.91
2018-05-31T11:06:59.333Z,35.14
2018-05-31T11:07:59.274Z,34.92
2018-05-31T11:08:59.207Z,34.56
2018-05-31T11:09:59.153Z,34.56
2018-05-31T11:10:59.087Z,34.56
2018-05-31T11:11:59.033Z,35.28
2018-05-31T11:12:58.960Z,35.15
2018-05-31T11:13:58.908Z,35.45
2018-05-31T11:14:58.907Z,35.44
2018-05-31T11:15:58.784Z,35.85
2018-05-31T11:16:58.724Z,36.01
2018-05-31T11:17:58.659Z,35.70
2018-05-31T11:18:58.597Z,35.82
2018-05-31T11:19:58.534Z,35.00
2018-05-31T11:20:58.474Z,34.69
2018-05-31T11:21:58.410Z,35.00
2018-05-31T11:22:58.348Z,34.80
2018-05-31T11:23:58.287Z,34.43
2018-05-31T11:24:58.237Z,34.24
2018-05-31T11:25:58.173Z,33.97
2018-05-31T11:26:58.110Z,33.98
2018-05-31T11:27:58.048Z,34.15
2018-05-31T11:28:57.985Z,34.84
2018-05-31T11:29:57.923Z,35.44
2018-05-31T11:30:57.860Z,35.28
2018-05-31T11:31:57.799Z,35.06
2018-05-31T11:32:57.736Z,35.36
2018-05-31T11:33:57.685Z,34.53
2018-05-31T11:34:57.624Z,34.32
2018-05-31T11:35:57.562Z,35.15
2018-05-31T11:36:57.499Z,35.85
2018-05-31T11:37:57.436Z,34.82
2018-05-31T11:38:57.374Z,33.68
2018-05-31T11:39:57.311Z,33.75
2018-05-31T11:40:57.249Z,34.87
2018-05-31T11:41:57.188Z,34.27
2018-05-31T11:42:57.125Z,33.87
2018-05-31T11:43:57.062Z,33.07
2018-05-31T11:44:57.000Z,33.44
2018-05-31T11:45:56.937Z,33.94
2018-05-31T11:46:56.876Z,34.75
2018-05-31T11:47:56.815Z,35.22
2018-05-31T11:48:56.751Z,35.72
2018-05-31T11:49:56.700Z,36.34
2018-05-31T11:50:56.626Z,36.08
2018-05-31T11:51:56.563Z,35.04
2018-05-31T11:52:56.502Z,33.94
2018-05-31T11:53:56.438Z,34.09
2018-05-31T11:54:56.377Z,34.19
2018-05-31T11:55:56.314Z,34.77
2018-05-31T11:56:56.251Z,35.72
2018-05-31T11:57:56.188Z,35.72
2018-05-31T11:58:56.127Z,36.09
2018-05-31T11:59:56.064Z,35.89
2018-05-31T12:00:56.002Z,36.13
2018-05-31T12:01:55.939Z,36.29
2018-05-31T12:02:55.885Z,36.41
2018-05-31T12:03:55.814Z,36.46
2018-05-31T12:04:55.752Z,36.49
2018-05-31T12:05:55.690Z,36.87
2018-05-31T12:06:55.639Z,35.93
2018-05-31T12:07:55.579Z,34.30
2018-05-31T12:08:55.514Z,32.96
2018-05-31T12:09:55.462Z,32.96
2018-05-31T12:10:55.390Z,33.61
2018-05-31T12:11:55.330Z,33.65
2018-05-31T12:12:55.264Z,33.84
2018-05-31T12:13:55.203Z,34.56
2018-05-31T12:14:55.146Z,35.52
2018-05-31T12:15:55.081Z,36.27
2018-05-31T12:16:55.015Z,36.27
2018-05-31T12:17:54.954Z,36.41
2018-05-31T12:18:54.891Z,35.82
2018-05-31T12:19:54.829Z,36.16
2018-05-31T12:20:54.766Z,36.72
2018-05-31T12:21:54.705Z,36.20
2018-05-31T12:22:54.654Z,35.68
2018-05-31T12:23:54.591Z,35.44
2018-05-31T12:24:54.530Z,35.22
2018-05-31T12:25:54.466Z,34.97
2018-05-31T12:26:54.410Z,35.26
2018-05-31T12:27:54.342Z,36.01
2018-05-31T12:28:54.280Z,36.91
2018-05-31T12:29:54.217Z,37.21
2018-05-31T12:30:54.155Z,37.94
2018-05-31T12:31:54.093Z,38.22
2018-05-31T12:32:54.030Z,38.52
2018-05-31T12:33:53.981Z,38.69
2018-05-31T12:34:53.917Z,38.38
2018-05-31T12:35:53.857Z,37.76
2018-05-31T12:36:53.793Z,37.79
2018-05-31T12:37:53.731Z,37.96
2018-05-31T12:38:53.667Z,37.79
2018-05-31T12:39:53.856Z,37.46
2018-05-31T12:40:53.545Z,37.31
2018-05-31T12:41:53.493Z,36.38
2018-05-31T12:42:53.431Z,36.47
2018-05-31T12:43:53.368Z,36.93
2018-05-31T12:44:53.307Z,37.36
2018-05-31T12:45:53.244Z,36.57
2018-05-31T12:46:53.182Z,36.85
2018-05-31T12:47:53.132Z,36.71
2018-05-31T12:48:53.068Z,36.20
2018-05-31T12:49:53.006Z,36.28
2018-05-31T12:50:52.944Z,35.48
2018-05-31T12:51:52.885Z,35.00